sensor_id;sensor_type;location;lat;lon;timestamp;temperature;humidity
19952;DHT22;10137;49.406;19.484;2023-08-21T00:00:09;18.10;99.90
19952;DHT22;10137;49.406;19.484;2023-08-21T00:02:38;18.00;99.90
19952;DHT22;10137;49.406;19.484;2023-08-21T00:05:06;18.00;99.90
19952;DHT22;10137;49.406;19.484;2023-08-21T00:07:33;18.10;99.90
19952;DHT22;10137;49.406;19.484;2023-08-21T00:10:00;18.10;99.90
19952;DHT22;10137;49.406;19.484;2023-08-21T00:12:28;18.10;99.90
19952;DHT22;10137;49.406;19.484;2023-08-21T00:14:55;18.10;99.90
19952;DHT22;10137;49.406;19.484;2023-08-21T00:17:22;18.00;99.90
19952;DHT22;10137;49.406;19.484;2023-08-21T00:19:49;18.00;99.90
19952;DHT22;10137;49.406;19.484;2023-08-21T00:22:16;18.00;99.90
19952;DHT22;10137;49.406;19.484;2023-08-21T00:24:43;18.10;99.90
19952;DHT22;10137;49.406;19.484;2023-08-21T00:27:10;18.00;99.90
19952;DHT22;10137;49.406;19.484;2023-08-21T00:29:38;18.00;99.90
19952;DHT22;10137;49.406;19.484;2023-08-21T00:32:05;17.90;99.90
19952;DHT22;10137;49.406;19.484;2023-08-21T00:34:32;17.90;99.90
19952;DHT22;10137;49.406;19.484;2023-08-21T00:36:59;18.00;99.90
19952;DHT22;10137;49.406;19.484;2023-08-21T00:39:26;17.90;99.90
19952;DHT22;10137;49.406;19.484;2023-08-21T00:41:53;17.80;99.90
19952;DHT22;10137;49.406;19.484;2023-08-21T00:44:20;17.80;99.90
19952;DHT22;10137;49.406;19.484;2023-08-21T00:46:49;17.60;99.90
19952;DHT22;10137;49.406;19.484;2023-08-21T00:49:15;17.60;99.90
19952;DHT22;10137;49.406;19.484;2023-08-21T00:51:43;17.60;99.90
19952;DHT22;10137;49.406;19.484;2023-08-21T00:54:11;17.60;99.90
19952;DHT22;10137;49.406;19.484;2023-08-21T00:56:38;17.60;99.90
19952;DHT22;10137;49.406;19.484;2023-08-21T00:59:05;17.60;99.90
19952;DHT22;10137;49.406;19.484;2023-08-21T01:01:33;17.50;99.90
19952;DHT22;10137;49.406;19.484;2023-08-21T01:04:01;17.50;99.90
19952;DHT22;10137;49.406;19.484;2023-08-21T01:06:29;17.50;99.90
19952;DHT22;10137;49.406;19.484;2023-08-21T01:08:59;17.50;99.90
19952;DHT22;10137;49.406;19.484;2023-08-21T01:11:34;17.50;99.90
19952;DHT22;10137;49.406;19.484;2023-08-21T01:14:09;17.40;99.90
19952;DHT22;10137;49.406;19.484;2023-08-21T01:16:40;17.40;99.90
19952;DHT22;10137;49.406;19.484;2023-08-21T01:19:19;17.40;99.90
19952;DHT22;10137;49.406;19.484;2023-08-21T01:21:49;17.40;99.90
19952;DHT22;10137;49.406;19.484;2023-08-21T01:24:20;17.30;99.90
19952;DHT22;10137;49.406;19.484;2023-08-21T01:26:47;17.30;99.90
19952;DHT22;10137;49.406;19.484;2023-08-21T01:29:14;17.30;99.90
19952;DHT22;10137;49.406;19.484;2023-08-21T01:31:46;17.30;99.90
19952;DHT22;10137;49.406;19.484;2023-08-21T01:34:15;17.20;99.90
19952;DHT22;10137;49.406;19.484;2023-08-21T01:36:42;17.20;99.90
19952;DHT22;10137;49.406;19.484;2023-08-21T01:39:10;17.30;99.90
19952;DHT22;10137;49.406;19.484;2023-08-21T01:41:38;17.20;99.90
19952;DHT22;10137;49.406;19.484;2023-08-21T01:44:05;17.20;99.90
19952;DHT22;10137;49.406;19.484;2023-08-21T01:46:32;17.20;99.90
19952;DHT22;10137;49.406;19.484;2023-08-21T01:48:59;17.20;99.90
19952;DHT22;10137;49.406;19.484;2023-08-21T01:51:26;17.20;99.90
19952;DHT22;10137;49.406;19.484;2023-08-21T01:53:53;17.20;99.90
19952;DHT22;10137;49.406;19.484;2023-08-21T01:56:19;17.20;99.90
19952;DHT22;10137;49.406;19.484;2023-08-21T01:58:48;17.10;99.90
19952;DHT22;10137;49.406;19.484;2023-08-21T02:01:15;17.10;99.90
19952;DHT22;10137;49.406;19.484;2023-08-21T02:03:44;17.10;99.90
19952;DHT22;10137;49.406;19.484;2023-08-21T02:06:11;17.10;99.90
19952;DHT22;10137;49.406;19.484;2023-08-21T02:08:38;17.10;99.90
19952;DHT22;10137;49.406;19.484;2023-08-21T02:11:05;17.10;99.90
19952;DHT22;10137;49.406;19.484;2023-08-21T02:13:32;17.10;99.90
19952;DHT22;10137;49.406;19.484;2023-08-21T02:16:01;17.10;99.90
19952;DHT22;10137;49.406;19.484;2023-08-21T02:18:28;17.10;99.90
19952;DHT22;10137;49.406;19.484;2023-08-21T02:20:55;17.10;99.90
19952;DHT22;10137;49.406;19.484;2023-08-21T02:23:22;17.10;99.90
19952;DHT22;10137;49.406;19.484;2023-08-21T02:25:50;17.10;99.90
19952;DHT22;10137;49.406;19.484;2023-08-21T02:28:16;17.10;99.90
19952;DHT22;10137;49.406;19.484;2023-08-21T02:30:43;17.00;99.90
19952;DHT22;10137;49.406;19.484;2023-08-21T02:33:12;17.00;99.90
19952;DHT22;10137;49.406;19.484;2023-08-21T02:35:39;17.00;99.90
19952;DHT22;10137;49.406;19.484;2023-08-21T02:38:05;17.00;99.90
19952;DHT22;10137;49.406;19.484;2023-08-21T02:40:32;16.90;99.90
19952;DHT22;10137;49.406;19.484;2023-08-21T02:42:59;16.80;99.90
19952;DHT22;10137;49.406;19.484;2023-08-21T02:45:26;16.80;99.90
19952;DHT22;10137;49.406;19.484;2023-08-21T02:47:53;16.80;99.90
19952;DHT22;10137;49.406;19.484;2023-08-21T02:50:21;16.90;99.90
19952;DHT22;10137;49.406;19.484;2023-08-21T02:52:48;16.80;99.90
19952;DHT22;10137;49.406;19.484;2023-08-21T02:55:15;16.70;99.90
19952;DHT22;10137;49.406;19.484;2023-08-21T02:57:42;16.70;99.90
19952;DHT22;10137;49.406;19.484;2023-08-21T03:00:10;16.50;99.90
19952;DHT22;10137;49.406;19.484;2023-08-21T03:02:37;16.40;99.90
19952;DHT22;10137;49.406;19.484;2023-08-21T03:05:08;16.50;99.90
19952;DHT22;10137;49.406;19.484;2023-08-21T03:07:37;16.60;99.90
19952;DHT22;10137;49.406;19.484;2023-08-21T03:10:05;16.60;99.90
19952;DHT22;10137;49.406;19.484;2023-08-21T03:12:32;16.60;99.90
19952;DHT22;10137;49.406;19.484;2023-08-21T03:14:59;16.60;99.90
19952;DHT22;10137;49.406;19.484;2023-08-21T03:17:26;16.60;99.90
19952;DHT22;10137;49.406;19.484;2023-08-21T03:19:53;16.60;99.90
19952;DHT22;10137;49.406;19.484;2023-08-21T03:22:20;16.60;99.90
19952;DHT22;10137;49.406;19.484;2023-08-21T03:24:48;16.50;99.90
19952;DHT22;10137;49.406;19.484;2023-08-21T03:27:15;16.50;99.90
19952;DHT22;10137;49.406;19.484;2023-08-21T03:29:42;16.40;99.90
19952;DHT22;10137;49.406;19.484;2023-08-21T03:32:14;16.40;99.90
19952;DHT22;10137;49.406;19.484;2023-08-21T03:34:41;16.40;99.90
19952;DHT22;10137;49.406;19.484;2023-08-21T03:37:08;16.40;99.90
19952;DHT22;10137;49.406;19.484;2023-08-21T03:39:35;16.40;99.90
19952;DHT22;10137;49.406;19.484;2023-08-21T03:42:04;16.40;99.90
19952;DHT22;10137;49.406;19.484;2023-08-21T03:44:31;16.50;99.90
19952;DHT22;10137;49.406;19.484;2023-08-21T03:46:59;16.50;99.90
19952;DHT22;10137;49.406;19.484;2023-08-21T03:49:25;16.50;99.90
19952;DHT22;10137;49.406;19.484;2023-08-21T03:51:52;16.40;99.90
19952;DHT22;10137;49.406;19.484;2023-08-21T03:54:19;16.40;99.90
19952;DHT22;10137;49.406;19.484;2023-08-21T03:56:46;16.40;99.90
19952;DHT22;10137;49.406;19.484;2023-08-21T03:59:14;16.30;99.90
19952;DHT22;10137;49.406;19.484;2023-08-21T04:01:41;16.20;99.90
19952;DHT22;10137;49.406;19.484;2023-08-21T04:04:08;16.30;99.90
19952;DHT22;10137;49.406;19.484;2023-08-21T04:06:35;16.30;99.90
19952;DHT22;10137;49.406;19.484;2023-08-21T04:09:02;16.30;99.90
19952;DHT22;10137;49.406;19.484;2023-08-21T04:11:31;16.30;99.90
19952;DHT22;10137;49.406;19.484;2023-08-21T04:13:59;16.30;99.90
19952;DHT22;10137;49.406;19.484;2023-08-21T04:16:28;16.30;99.90
19952;DHT22;10137;49.406;19.484;2023-08-21T04:18:56;16.30;99.90
19952;DHT22;10137;49.406;19.484;2023-08-21T04:21:23;16.30;99.90
19952;DHT22;10137;49.406;19.484;2023-08-21T04:23:50;16.40;99.90
19952;DHT22;10137;49.406;19.484;2023-08-21T04:26:17;16.40;99.90
19952;DHT22;10137;49.406;19.484;2023-08-21T04:28:44;16.50;99.90
19952;DHT22;10137;49.406;19.484;2023-08-21T04:31:10;16.50;99.90
19952;DHT22;10137;49.406;19.484;2023-08-21T04:33:39;16.40;99.90
19952;DHT22;10137;49.406;19.484;2023-08-21T04:36:06;16.40;99.90
19952;DHT22;10137;49.406;19.484;2023-08-21T04:38:33;16.50;99.90
19952;DHT22;10137;49.406;19.484;2023-08-21T04:41:06;16.50;99.90
19952;DHT22;10137;49.406;19.484;2023-08-21T04:43:33;16.50;99.90
19952;DHT22;10137;49.406;19.484;2023-08-21T04:46:00;16.50;99.90
19952;DHT22;10137;49.406;19.484;2023-08-21T04:48:27;16.60;99.90
19952;DHT22;10137;49.406;19.484;2023-08-21T04:50:56;16.50;99.90
19952;DHT22;10137;49.406;19.484;2023-08-21T04:53:22;16.60;99.90
19952;DHT22;10137;49.406;19.484;2023-08-21T04:55:49;16.60;99.90
19952;DHT22;10137;49.406;19.484;2023-08-21T04:58:16;16.70;99.90
19952;DHT22;10137;49.406;19.484;2023-08-21T05:00:44;16.80;99.90
19952;DHT22;10137;49.406;19.484;2023-08-21T05:03:11;16.90;99.90
19952;DHT22;10137;49.406;19.484;2023-08-21T05:05:38;17.00;99.90
19952;DHT22;10137;49.406;19.484;2023-08-21T05:08:07;17.20;99.90
19952;DHT22;10137;49.406;19.484;2023-08-21T05:10:36;17.40;99.90
19952;DHT22;10137;49.406;19.484;2023-08-21T05:13:04;17.50;99.90
19952;DHT22;10137;49.406;19.484;2023-08-21T05:15:31;17.70;99.90
19952;DHT22;10137;49.406;19.484;2023-08-21T05:17:58;17.90;99.90
19952;DHT22;10137;49.406;19.484;2023-08-21T05:20:25;18.10;99.90
19952;DHT22;10137;49.406;19.484;2023-08-21T05:22:52;18.30;99.90
19952;DHT22;10137;49.406;19.484;2023-08-21T05:25:20;18.50;99.90
19952;DHT22;10137;49.406;19.484;2023-08-21T05:27:47;18.70;99.90
19952;DHT22;10137;49.406;19.484;2023-08-21T05:30:14;18.80;99.90
19952;DHT22;10137;49.406;19.484;2023-08-21T05:32:41;19.00;99.90
19952;DHT22;10137;49.406;19.484;2023-08-21T05:35:08;19.20;99.90
19952;DHT22;10137;49.406;19.484;2023-08-21T05:37:35;19.40;99.90
19952;DHT22;10137;49.406;19.484;2023-08-21T05:40:02;19.70;99.90
19952;DHT22;10137;49.406;19.484;2023-08-21T05:42:31;19.80;99.90
19952;DHT22;10137;49.406;19.484;2023-08-21T05:44:58;20.00;99.90
19952;DHT22;10137;49.406;19.484;2023-08-21T05:47:25;20.10;99.90
19952;DHT22;10137;49.406;19.484;2023-08-21T05:49:52;20.40;99.90
19952;DHT22;10137;49.406;19.484;2023-08-21T05:52:20;20.60;99.90
19952;DHT22;10137;49.406;19.484;2023-08-21T05:54:47;20.80;99.90
19952;DHT22;10137;49.406;19.484;2023-08-21T05:57:15;21.00;99.90
19952;DHT22;10137;49.406;19.484;2023-08-21T05:59:45;21.20;99.90
19952;DHT22;10137;49.406;19.484;2023-08-21T06:02:13;21.30;99.90
19952;DHT22;10137;49.406;19.484;2023-08-21T06:04:41;21.60;99.90
19952;DHT22;10137;49.406;19.484;2023-08-21T06:07:08;21.80;99.90
19952;DHT22;10137;49.406;19.484;2023-08-21T06:09:35;22.00;99.90
19952;DHT22;10137;49.406;19.484;2023-08-21T06:12:03;22.10;99.90
19952;DHT22;10137;49.406;19.484;2023-08-21T06:14:30;22.20;99.90
19952;DHT22;10137;49.406;19.484;2023-08-21T06:16:59;22.40;99.90
19952;DHT22;10137;49.406;19.484;2023-08-21T06:19:26;22.50;99.90
19952;DHT22;10137;49.406;19.484;2023-08-21T06:21:54;22.70;99.90
19952;DHT22;10137;49.406;19.484;2023-08-21T06:24:21;22.90;99.90
19952;DHT22;10137;49.406;19.484;2023-08-21T06:26:48;22.80;99.90
19952;DHT22;10137;49.406;19.484;2023-08-21T06:29:15;22.80;99.90
19952;DHT22;10137;49.406;19.484;2023-08-21T06:31:42;22.80;99.90
19952;DHT22;10137;49.406;19.484;2023-08-21T06:34:10;22.80;99.90
19952;DHT22;10137;49.406;19.484;2023-08-21T06:36:37;22.90;99.90
19952;DHT22;10137;49.406;19.484;2023-08-21T06:39:05;23.10;99.90
19952;DHT22;10137;49.406;19.484;2023-08-21T06:41:32;23.00;99.90
19952;DHT22;10137;49.406;19.484;2023-08-21T06:43:59;22.90;99.90
19952;DHT22;10137;49.406;19.484;2023-08-21T06:46:26;23.10;99.90
19952;DHT22;10137;49.406;19.484;2023-08-21T06:48:53;23.20;99.90
19952;DHT22;10137;49.406;19.484;2023-08-21T06:51:21;23.30;99.90
19952;DHT22;10137;49.406;19.484;2023-08-21T06:53:48;23.50;99.90
19952;DHT22;10137;49.406;19.484;2023-08-21T06:56:15;23.90;99.90
19952;DHT22;10137;49.406;19.484;2023-08-21T06:58:43;24.50;99.90
19952;DHT22;10137;49.406;19.484;2023-08-21T07:01:10;24.70;99.90
19952;DHT22;10137;49.406;19.484;2023-08-21T07:03:36;24.80;99.90
19952;DHT22;10137;49.406;19.484;2023-08-21T07:06:05;24.90;99.90
19952;DHT22;10137;49.406;19.484;2023-08-21T07:08:34;24.90;99.90
19952;DHT22;10137;49.406;19.484;2023-08-21T07:11:03;24.70;99.90
19952;DHT22;10137;49.406;19.484;2023-08-21T07:13:31;24.60;99.90
19952;DHT22;10137;49.406;19.484;2023-08-21T07:16:00;24.50;99.90
19952;DHT22;10137;49.406;19.484;2023-08-21T07:18:31;24.40;99.90
19952;DHT22;10137;49.406;19.484;2023-08-21T07:21:00;24.30;99.90
19952;DHT22;10137;49.406;19.484;2023-08-21T07:23:28;24.40;99.90
19952;DHT22;10137;49.406;19.484;2023-08-21T07:25:58;24.80;99.90
19952;DHT22;10137;49.406;19.484;2023-08-21T07:28:26;25.10;99.90
19952;DHT22;10137;49.406;19.484;2023-08-21T07:30:58;25.20;99.90
19952;DHT22;10137;49.406;19.484;2023-08-21T07:33:26;25.40;99.90
19952;DHT22;10137;49.406;19.484;2023-08-21T07:36:00;25.60;99.90
19952;DHT22;10137;49.406;19.484;2023-08-21T07:38:28;25.60;99.90
19952;DHT22;10137;49.406;19.484;2023-08-21T07:41:08;25.70;99.90
19952;DHT22;10137;49.406;19.484;2023-08-21T07:43:38;25.80;99.90
19952;DHT22;10137;49.406;19.484;2023-08-21T07:46:07;26.10;99.90
19952;DHT22;10137;49.406;19.484;2023-08-21T07:48:37;26.60;99.90
19952;DHT22;10137;49.406;19.484;2023-08-21T07:51:05;27.00;99.90
19952;DHT22;10137;49.406;19.484;2023-08-21T07:53:33;27.20;99.90
19952;DHT22;10137;49.406;19.484;2023-08-21T07:56:02;27.40;99.90
19952;DHT22;10137;49.406;19.484;2023-08-21T07:58:32;27.40;99.90
19952;DHT22;10137;49.406;19.484;2023-08-21T08:01:00;27.70;99.90
19952;DHT22;10137;49.406;19.484;2023-08-21T08:03:28;28.00;99.90
19952;DHT22;10137;49.406;19.484;2023-08-21T08:05:56;28.10;99.90
19952;DHT22;10137;49.406;19.484;2023-08-21T08:08:24;28.30;99.90
19952;DHT22;10137;49.406;19.484;2023-08-21T08:10:53;28.30;99.90
19952;DHT22;10137;49.406;19.484;2023-08-21T08:13:21;28.30;99.90
19952;DHT22;10137;49.406;19.484;2023-08-21T08:15:51;28.20;99.90
19952;DHT22;10137;49.406;19.484;2023-08-21T08:18:19;28.30;99.90
19952;DHT22;10137;49.406;19.484;2023-08-21T08:20:47;28.40;99.90
19952;DHT22;10137;49.406;19.484;2023-08-21T08:23:16;28.60;99.90
19952;DHT22;10137;49.406;19.484;2023-08-21T08:25:45;28.90;99.90
19952;DHT22;10137;49.406;19.484;2023-08-21T08:28:13;29.00;99.90
19952;DHT22;10137;49.406;19.484;2023-08-21T08:30:41;29.20;99.90
19952;DHT22;10137;49.406;19.484;2023-08-21T08:33:11;29.50;99.90
19952;DHT22;10137;49.406;19.484;2023-08-21T08:35:39;29.80;99.90
19952;DHT22;10137;49.406;19.484;2023-08-21T08:38:08;29.90;99.90
19952;DHT22;10137;49.406;19.484;2023-08-21T08:40:40;30.20;99.90
19952;DHT22;10137;49.406;19.484;2023-08-21T08:43:11;30.60;99.90
19952;DHT22;10137;49.406;19.484;2023-08-21T08:45:41;30.70;99.90
19952;DHT22;10137;49.406;19.484;2023-08-21T08:48:11;30.90;99.90
19952;DHT22;10137;49.406;19.484;2023-08-21T08:50:40;30.80;99.90
19952;DHT22;10137;49.406;19.484;2023-08-21T08:53:10;30.80;99.90
19952;DHT22;10137;49.406;19.484;2023-08-21T08:55:38;30.50;99.90
19952;DHT22;10137;49.406;19.484;2023-08-21T08:58:06;30.30;99.90
19952;DHT22;10137;49.406;19.484;2023-08-21T09:00:35;30.10;99.90
19952;DHT22;10137;49.406;19.484;2023-08-21T09:03:04;30.10;99.90
19952;DHT22;10137;49.406;19.484;2023-08-21T09:05:34;30.10;99.90
19952;DHT22;10137;49.406;19.484;2023-08-21T09:08:20;30.40;99.90
19952;DHT22;10137;49.406;19.484;2023-08-21T09:10:48;30.70;99.90
19952;DHT22;10137;49.406;19.484;2023-08-21T09:13:16;31.10;99.90
19952;DHT22;10137;49.406;19.484;2023-08-21T09:15:47;31.40;99.90
19952;DHT22;10137;49.406;19.484;2023-08-21T09:18:14;31.50;99.90
19952;DHT22;10137;49.406;19.484;2023-08-21T09:20:43;31.70;99.90
19952;DHT22;10137;49.406;19.484;2023-08-21T09:23:13;32.00;99.90
19952;DHT22;10137;49.406;19.484;2023-08-21T09:25:40;32.20;99.90
19952;DHT22;10137;49.406;19.484;2023-08-21T09:28:09;32.30;99.90
19952;DHT22;10137;49.406;19.484;2023-08-21T09:30:46;32.40;99.90
19952;DHT22;10137;49.406;19.484;2023-08-21T09:33:13;32.50;99.90
19952;DHT22;10137;49.406;19.484;2023-08-21T09:35:43;32.40;97.60
19952;DHT22;10137;49.406;19.484;2023-08-21T09:38:10;32.20;95.20
19952;DHT22;10137;49.406;19.484;2023-08-21T09:40:40;32.00;96.30
19952;DHT22;10137;49.406;19.484;2023-08-21T09:43:09;32.40;97.80
19952;DHT22;10137;49.406;19.484;2023-08-21T09:45:37;32.50;96.20
19952;DHT22;10137;49.406;19.484;2023-08-21T09:48:04;32.40;95.80
19952;DHT22;10137;49.406;19.484;2023-08-21T09:50:32;32.20;96.10
19952;DHT22;10137;49.406;19.484;2023-08-21T09:53:02;32.50;97.50
19952;DHT22;10137;49.406;19.484;2023-08-21T09:55:31;32.20;94.90
19952;DHT22;10137;49.406;19.484;2023-08-21T09:57:59;31.90;95.20
19952;DHT22;10137;49.406;19.484;2023-08-21T10:00:29;31.60;94.70
19952;DHT22;10137;49.406;19.484;2023-08-21T10:03:00;31.60;94.30
19952;DHT22;10137;49.406;19.484;2023-08-21T10:05:28;31.80;94.50
19952;DHT22;10137;49.406;19.484;2023-08-21T10:07:56;31.80;93.90
19952;DHT22;10137;49.406;19.484;2023-08-21T10:10:24;31.80;94.00
19952;DHT22;10137;49.406;19.484;2023-08-21T10:12:51;32.00;92.30
19952;DHT22;10137;49.406;19.484;2023-08-21T10:15:19;32.10;93.20
19952;DHT22;10137;49.406;19.484;2023-08-21T10:17:45;32.20;92.50
19952;DHT22;10137;49.406;19.484;2023-08-21T10:20:12;32.20;92.40
19952;DHT22;10137;49.406;19.484;2023-08-21T10:22:42;32.40;92.20
19952;DHT22;10137;49.406;19.484;2023-08-21T10:25:17;32.40;91.20
19952;DHT22;10137;49.406;19.484;2023-08-21T10:27:49;32.40;91.60
19952;DHT22;10137;49.406;19.484;2023-08-21T10:30:20;32.30;91.20
19952;DHT22;10137;49.406;19.484;2023-08-21T10:32:48;32.00;90.60
19952;DHT22;10137;49.406;19.484;2023-08-21T10:35:17;31.90;91.90
19952;DHT22;10137;49.406;19.484;2023-08-21T10:38:06;31.80;91.20
19952;DHT22;10137;49.406;19.484;2023-08-21T10:40:33;31.60;91.50
19952;DHT22;10137;49.406;19.484;2023-08-21T10:43:02;31.60;91.60
19952;DHT22;10137;49.406;19.484;2023-08-21T10:45:30;31.70;92.60
19952;DHT22;10137;49.406;19.484;2023-08-21T10:47:57;32.00;91.80
19952;DHT22;10137;49.406;19.484;2023-08-21T10:50:25;32.10;91.40
19952;DHT22;10137;49.406;19.484;2023-08-21T10:52:53;32.10;91.50
19952;DHT22;10137;49.406;19.484;2023-08-21T10:55:20;32.00;88.90
19952;DHT22;10137;49.406;19.484;2023-08-21T10:57:48;31.90;89.70
19952;DHT22;10137;49.406;19.484;2023-08-21T11:00:18;32.10;90.30
19952;DHT22;10137;49.406;19.484;2023-08-21T11:02:48;32.20;90.30
19952;DHT22;10137;49.406;19.484;2023-08-21T11:05:16;32.10;86.70
19952;DHT22;10137;49.406;19.484;2023-08-21T11:07:44;32.00;86.30
19952;DHT22;10137;49.406;19.484;2023-08-21T11:10:13;31.80;86.30
19952;DHT22;10137;49.406;19.484;2023-08-21T11:12:51;31.60;84.40
19952;DHT22;10137;49.406;19.484;2023-08-21T11:15:21;31.60;87.50
19952;DHT22;10137;49.406;19.484;2023-08-21T11:17:54;31.30;88.60
19952;DHT22;10137;49.406;19.484;2023-08-21T11:20:28;31.20;89.50
19952;DHT22;10137;49.406;19.484;2023-08-21T11:22:57;31.00;87.30
19952;DHT22;10137;49.406;19.484;2023-08-21T11:25:25;30.90;89.30
19952;DHT22;10137;49.406;19.484;2023-08-21T11:27:54;31.00;88.10
19952;DHT22;10137;49.406;19.484;2023-08-21T11:30:25;31.00;86.40
19952;DHT22;10137;49.406;19.484;2023-08-21T11:33:05;30.90;84.50
19952;DHT22;10137;49.406;19.484;2023-08-21T11:35:34;30.60;82.00
19952;DHT22;10137;49.406;19.484;2023-08-21T11:38:20;30.40;83.20
19952;DHT22;10137;49.406;19.484;2023-08-21T11:40:56;30.30;85.70
19952;DHT22;10137;49.406;19.484;2023-08-21T11:43:35;30.20;85.90
19952;DHT22;10137;49.406;19.484;2023-08-21T11:46:10;30.00;85.70
19952;DHT22;10137;49.406;19.484;2023-08-21T11:48:42;29.90;86.60
19952;DHT22;10137;49.406;19.484;2023-08-21T11:51:12;30.00;85.60
19952;DHT22;10137;49.406;19.484;2023-08-21T11:53:41;30.20;85.40
19952;DHT22;10137;49.406;19.484;2023-08-21T11:56:13;30.20;84.10
19952;DHT22;10137;49.406;19.484;2023-08-21T11:58:41;30.20;84.80
19952;DHT22;10137;49.406;19.484;2023-08-21T12:01:10;30.30;86.00
19952;DHT22;10137;49.406;19.484;2023-08-21T12:03:37;30.30;84.90
19952;DHT22;10137;49.406;19.484;2023-08-21T12:06:06;30.40;87.70
19952;DHT22;10137;49.406;19.484;2023-08-21T12:08:33;30.40;89.80
19952;DHT22;10137;49.406;19.484;2023-08-21T12:11:00;30.30;90.40
19952;DHT22;10137;49.406;19.484;2023-08-21T12:13:27;30.20;91.10
19952;DHT22;10137;49.406;19.484;2023-08-21T12:15:54;30.20;92.00
19952;DHT22;10137;49.406;19.484;2023-08-21T12:18:23;30.10;92.40
19952;DHT22;10137;49.406;19.484;2023-08-21T12:20:50;30.20;93.00
19952;DHT22;10137;49.406;19.484;2023-08-21T12:23:17;30.20;92.20
19952;DHT22;10137;49.406;19.484;2023-08-21T12:25:43;30.10;91.70
19952;DHT22;10137;49.406;19.484;2023-08-21T12:28:11;30.00;92.60
19952;DHT22;10137;49.406;19.484;2023-08-21T12:30:39;30.00;92.30
19952;DHT22;10137;49.406;19.484;2023-08-21T12:33:11;29.90;92.20
19952;DHT22;10137;49.406;19.484;2023-08-21T12:35:39;29.80;92.20
19952;DHT22;10137;49.406;19.484;2023-08-21T12:38:11;29.80;93.60
19952;DHT22;10137;49.406;19.484;2023-08-21T12:40:38;29.60;99.60
19952;DHT22;10137;49.406;19.484;2023-08-21T12:43:05;29.40;99.90
19952;DHT22;10137;49.406;19.484;2023-08-21T12:45:32;29.30;99.90
19952;DHT22;10137;49.406;19.484;2023-08-21T12:47:59;29.20;99.90
19952;DHT22;10137;49.406;19.484;2023-08-21T12:50:26;29.10;99.80
19952;DHT22;10137;49.406;19.484;2023-08-21T12:52:55;29.00;98.00
19952;DHT22;10137;49.406;19.484;2023-08-21T12:55:22;29.00;97.20
19952;DHT22;10137;49.406;19.484;2023-08-21T12:57:49;29.10;98.40
19952;DHT22;10137;49.406;19.484;2023-08-21T13:00:16;29.10;98.90
19952;DHT22;10137;49.406;19.484;2023-08-21T13:02:43;29.20;98.00
19952;DHT22;10137;49.406;19.484;2023-08-21T13:05:11;29.20;97.30
19952;DHT22;10137;49.406;19.484;2023-08-21T13:07:38;29.30;97.10
19952;DHT22;10137;49.406;19.484;2023-08-21T13:10:07;29.20;96.20
19952;DHT22;10137;49.406;19.484;2023-08-21T13:12:34;29.20;96.70
19952;DHT22;10137;49.406;19.484;2023-08-21T13:15:03;29.10;97.40
19952;DHT22;10137;49.406;19.484;2023-08-21T13:17:33;29.10;98.40
19952;DHT22;10137;49.406;19.484;2023-08-21T13:20:00;29.10;98.60
19952;DHT22;10137;49.406;19.484;2023-08-21T13:22:29;29.10;97.60
19952;DHT22;10137;49.406;19.484;2023-08-21T13:25:13;29.20;96.60
19952;DHT22;10137;49.406;19.484;2023-08-21T13:27:40;29.20;95.50
19952;DHT22;10137;49.406;19.484;2023-08-21T13:30:09;29.10;97.80
19952;DHT22;10137;49.406;19.484;2023-08-21T13:32:38;29.20;97.50
19952;DHT22;10137;49.406;19.484;2023-08-21T13:35:08;29.20;98.80
19952;DHT22;10137;49.406;19.484;2023-08-21T13:37:37;29.20;98.90
19952;DHT22;10137;49.406;19.484;2023-08-21T13:40:06;29.20;99.90
19952;DHT22;10137;49.406;19.484;2023-08-21T13:42:44;29.30;99.90
19952;DHT22;10137;49.406;19.484;2023-08-21T13:45:12;29.40;99.90
19952;DHT22;10137;49.406;19.484;2023-08-21T13:47:42;29.40;99.90
19952;DHT22;10137;49.406;19.484;2023-08-21T13:50:11;29.50;99.90
19952;DHT22;10137;49.406;19.484;2023-08-21T13:52:40;29.50;99.90
19952;DHT22;10137;49.406;19.484;2023-08-21T13:55:08;29.60;99.90
19952;DHT22;10137;49.406;19.484;2023-08-21T13:57:35;29.60;99.90
19952;DHT22;10137;49.406;19.484;2023-08-21T14:00:05;29.60;99.90
19952;DHT22;10137;49.406;19.484;2023-08-21T14:02:33;29.60;99.90
19952;DHT22;10137;49.406;19.484;2023-08-21T14:05:01;29.60;99.90
19952;DHT22;10137;49.406;19.484;2023-08-21T14:07:28;29.70;99.90
19952;DHT22;10137;49.406;19.484;2023-08-21T14:09:55;29.60;99.90
19952;DHT22;10137;49.406;19.484;2023-08-21T14:12:22;29.50;99.90
19952;DHT22;10137;49.406;19.484;2023-08-21T14:14:49;29.40;99.40
19952;DHT22;10137;49.406;19.484;2023-08-21T14:17:18;29.20;98.30
19952;DHT22;10137;49.406;19.484;2023-08-21T14:19:44;28.80;99.40
19952;DHT22;10137;49.406;19.484;2023-08-21T14:22:11;28.60;99.90
19952;DHT22;10137;49.406;19.484;2023-08-21T14:24:38;28.50;99.90
19952;DHT22;10137;49.406;19.484;2023-08-21T14:27:05;28.60;99.90
19952;DHT22;10137;49.406;19.484;2023-08-21T14:29:32;28.40;99.90
19952;DHT22;10137;49.406;19.484;2023-08-21T14:31:59;28.30;99.90
19952;DHT22;10137;49.406;19.484;2023-08-21T14:34:28;28.10;99.90
19952;DHT22;10137;49.406;19.484;2023-08-21T14:36:54;28.00;99.90
19952;DHT22;10137;49.406;19.484;2023-08-21T14:39:22;28.00;99.90
19952;DHT22;10137;49.406;19.484;2023-08-21T14:41:54;28.00;99.90
19952;DHT22;10137;49.406;19.484;2023-08-21T14:44:21;28.00;99.90
19952;DHT22;10137;49.406;19.484;2023-08-21T14:46:48;28.00;99.90
19952;DHT22;10137;49.406;19.484;2023-08-21T14:49:15;27.90;99.90
19952;DHT22;10137;49.406;19.484;2023-08-21T14:51:43;27.90;99.90
19952;DHT22;10137;49.406;19.484;2023-08-21T14:54:10;27.80;99.90
19952;DHT22;10137;49.406;19.484;2023-08-21T14:56:38;27.70;99.90
19952;DHT22;10137;49.406;19.484;2023-08-21T14:59:04;27.70;99.90
19952;DHT22;10137;49.406;19.484;2023-08-21T15:01:36;27.70;99.90
19952;DHT22;10137;49.406;19.484;2023-08-21T15:04:03;27.60;99.90
19952;DHT22;10137;49.406;19.484;2023-08-21T15:06:30;27.50;99.90
19952;DHT22;10137;49.406;19.484;2023-08-21T15:08:58;27.50;99.90
19952;DHT22;10137;49.406;19.484;2023-08-21T15:11:25;27.60;99.90
19952;DHT22;10137;49.406;19.484;2023-08-21T15:13:52;27.50;99.90
19952;DHT22;10137;49.406;19.484;2023-08-21T15:16:19;27.60;99.90
19952;DHT22;10137;49.406;19.484;2023-08-21T15:18:46;27.70;99.90
19952;DHT22;10137;49.406;19.484;2023-08-21T15:21:14;27.60;99.90